Terminal Aerodrome Forecast
Issued by NWS Grand Forks, ND

Home | Current Version | Previous Version | Graphics & Text | Print | Product List | Glossary On
Versions: 1 2 3 4 5 6 7 8 9 10 11 12 13 14 15 16 17 18
000
FTUS43 KFGF 181700
TAFGFK
TAF
KGFK 181720Z 1818/1918 14015G23KT P6SM SCT060
     FM181900 13020G28KT P6SM OVC060
     FM182100 14024G30KT P6SM OVC040
     FM190300 13020KT P6SM -SHRA OVC040
     FM191200 21009KT P6SM BKN025
     FM191500 25013KT P6SM SCT050=

USA.gov is the U.S. government's official web portal to all federal, state and local government web resources and services.